sensor_id;sensor_type;location;lat;lon;timestamp;P1;durP1;ratioP1;P2;durP2;ratioP2
3779;SDS011;1905;52.482;9.802;2022-09-09T00:00:47;2.50;;;2.30;;
3779;SDS011;1905;52.482;9.802;2022-09-09T00:03:22;2.77;;;2.57;;
3779;SDS011;1905;52.482;9.802;2022-09-09T00:05:55;3.37;;;2.60;;
3779;SDS011;1905;52.482;9.802;2022-09-09T00:08:33;2.20;;;2.10;;
3779;SDS011;1905;52.482;9.802;2022-09-09T00:11:11;2.50;;;2.30;;
3779;SDS011;1905;52.482;9.802;2022-09-09T00:13:44;2.40;;;2.07;;
3779;SDS011;1905;52.482;9.802;2022-09-09T00:16:17;2.20;;;2.10;;
3779;SDS011;1905;52.482;9.802;2022-09-09T00:18:51;2.80;;;2.20;;
3779;SDS011;1905;52.482;9.802;2022-09-09T00:21:30;2.10;;;1.87;;
3779;SDS011;1905;52.482;9.802;2022-09-09T00:24:01;2.03;;;1.93;;
3779;SDS011;1905;52.482;9.802;2022-09-09T00:26:42;2.00;;;1.90;;
3779;SDS011;1905;52.482;9.802;2022-09-09T00:29:14;2.30;;;1.90;;
3779;SDS011;1905;52.482;9.802;2022-09-09T00:31:50;1.60;;;1.50;;
3779;SDS011;1905;52.482;9.802;2022-09-09T00:34:23;2.87;;;1.80;;
3779;SDS011;1905;52.482;9.802;2022-09-09T00:36:53;2.28;;;2.08;;
3779;SDS011;1905;52.482;9.802;2022-09-09T00:39:25;1.70;;;1.60;;
3779;SDS011;1905;52.482;9.802;2022-09-09T00:42:06;1.63;;;1.50;;
3779;SDS011;1905;52.482;9.802;2022-09-09T00:44:45;2.80;;;1.80;;
3779;SDS011;1905;52.482;9.802;2022-09-09T00:47:24;1.43;;;1.33;;
3779;SDS011;1905;52.482;9.802;2022-09-09T00:50:10;1.67;;;1.57;;
3779;SDS011;1905;52.482;9.802;2022-09-09T00:52:50;2.70;;;1.83;;
3779;SDS011;1905;52.482;9.802;2022-09-09T00:55:27;1.70;;;1.60;;
3779;SDS011;1905;52.482;9.802;2022-09-09T00:58:06;1.60;;;1.50;;
3779;SDS011;1905;52.482;9.802;2022-09-09T01:00:35;4.13;;;1.70;;
3779;SDS011;1905;52.482;9.802;2022-09-09T01:03:17;3.37;;;1.70;;
3779;SDS011;1905;52.482;9.802;2022-09-09T01:05:54;1.50;;;1.40;;
3779;SDS011;1905;52.482;9.802;2022-09-09T01:11:37;1.80;;;1.70;;
3779;SDS011;1905;52.482;9.802;2022-09-09T01:14:22;2.00;;;1.90;;
3779;SDS011;1905;52.482;9.802;2022-09-09T01:16:59;2.13;;;1.43;;
3779;SDS011;1905;52.482;9.802;2022-09-09T01:19:36;1.60;;;1.50;;
3779;SDS011;1905;52.482;9.802;2022-09-09T01:22:18;1.63;;;1.40;;
3779;SDS011;1905;52.482;9.802;2022-09-09T01:25:04;1.67;;;1.57;;
3779;SDS011;1905;52.482;9.802;2022-09-09T01:27:54;1.83;;;1.53;;
3779;SDS011;1905;52.482;9.802;2022-09-09T01:30:25;2.00;;;1.83;;
3779;SDS011;1905;52.482;9.802;2022-09-09T01:32:56;2.00;;;1.33;;
3779;SDS011;1905;52.482;9.802;2022-09-09T01:35:33;1.53;;;1.40;;
3779;SDS011;1905;52.482;9.802;2022-09-09T01:38:07;1.20;;;1.10;;
3779;SDS011;1905;52.482;9.802;2022-09-09T01:40:35;1.50;;;1.40;;
3779;SDS011;1905;52.482;9.802;2022-09-09T01:43:05;1.27;;;1.17;;
3779;SDS011;1905;52.482;9.802;2022-09-09T01:45:34;1.75;;;1.25;;
3779;SDS011;1905;52.482;9.802;2022-09-09T01:48:02;2.97;;;1.47;;
3779;SDS011;1905;52.482;9.802;2022-09-09T01:50:46;1.20;;;1.10;;
3779;SDS011;1905;52.482;9.802;2022-09-09T01:53:14;1.63;;;1.40;;
3779;SDS011;1905;52.482;9.802;2022-09-09T01:55:46;1.70;;;1.40;;
3779;SDS011;1905;52.482;9.802;2022-09-09T01:58:27;1.30;;;1.20;;
3779;SDS011;1905;52.482;9.802;2022-09-09T02:01:03;1.33;;;1.23;;
3779;SDS011;1905;52.482;9.802;2022-09-09T02:03:40;3.33;;;1.77;;
3779;SDS011;1905;52.482;9.802;2022-09-09T02:06:22;1.97;;;1.33;;
3779;SDS011;1905;52.482;9.802;2022-09-09T02:09:02;2.03;;;1.30;;
3779;SDS011;1905;52.482;9.802;2022-09-09T02:11:33;1.27;;;1.17;;
3779;SDS011;1905;52.482;9.802;2022-09-09T02:14:15;2.77;;;1.13;;
3779;SDS011;1905;52.482;9.802;2022-09-09T02:16:50;1.10;;;1.00;;
3779;SDS011;1905;52.482;9.802;2022-09-09T02:19:27;1.40;;;1.30;;
3779;SDS011;1905;52.482;9.802;2022-09-09T02:22:06;1.67;;;1.47;;
3779;SDS011;1905;52.482;9.802;2022-09-09T02:24:34;1.33;;;1.23;;
3779;SDS011;1905;52.482;9.802;2022-09-09T02:27:15;1.77;;;1.20;;
3779;SDS011;1905;52.482;9.802;2022-09-09T02:29:47;1.07;;;1.03;;
3779;SDS011;1905;52.482;9.802;2022-09-09T02:32:28;2.10;;;1.33;;
3779;SDS011;1905;52.482;9.802;2022-09-09T02:35:02;1.27;;;1.17;;
3779;SDS011;1905;52.482;9.802;2022-09-09T02:37:36;1.20;;;1.10;;
3779;SDS011;1905;52.482;9.802;2022-09-09T02:40:06;1.23;;;1.13;;
3779;SDS011;1905;52.482;9.802;2022-09-09T02:42:41;1.63;;;1.40;;
3779;SDS011;1905;52.482;9.802;2022-09-09T02:45:12;1.80;;;1.07;;
3779;SDS011;1905;52.482;9.802;2022-09-09T02:47:44;1.20;;;1.20;;
3779;SDS011;1905;52.482;9.802;2022-09-09T02:50:22;1.17;;;1.03;;
3779;SDS011;1905;52.482;9.802;2022-09-09T02:53:01;1.37;;;1.13;;
3779;SDS011;1905;52.482;9.802;2022-09-09T02:55:39;1.20;;;1.10;;
3779;SDS011;1905;52.482;9.802;2022-09-09T02:58:12;1.53;;;1.27;;
3779;SDS011;1905;52.482;9.802;2022-09-09T03:00:50;2.33;;;1.30;;
3779;SDS011;1905;52.482;9.802;2022-09-09T03:03:19;1.27;;;1.17;;
3779;SDS011;1905;52.482;9.802;2022-09-09T03:05:49;4.67;;;1.40;;
3779;SDS011;1905;52.482;9.802;2022-09-09T03:08:17;1.87;;;1.20;;
3779;SDS011;1905;52.482;9.802;2022-09-09T03:10:46;1.20;;;1.10;;
3779;SDS011;1905;52.482;9.802;2022-09-09T03:13:14;1.27;;;1.13;;
3779;SDS011;1905;52.482;9.802;2022-09-09T03:15:43;1.60;;;1.40;;
3779;SDS011;1905;52.482;9.802;2022-09-09T03:18:16;1.20;;;1.10;;
3779;SDS011;1905;52.482;9.802;2022-09-09T03:20:48;1.10;;;1.00;;
3779;SDS011;1905;52.482;9.802;2022-09-09T03:23:16;1.33;;;1.23;;
3779;SDS011;1905;52.482;9.802;2022-09-09T03:25:48;5.80;;;1.23;;
3779;SDS011;1905;52.482;9.802;2022-09-09T03:28:19;3.50;;;1.30;;
3779;SDS011;1905;52.482;9.802;2022-09-09T03:30:48;1.60;;;1.30;;
3779;SDS011;1905;52.482;9.802;2022-09-09T03:33:18;1.50;;;1.27;;
3779;SDS011;1905;52.482;9.802;2022-09-09T03:35:46;1.67;;;1.23;;
3779;SDS011;1905;52.482;9.802;2022-09-09T03:38:16;2.30;;;1.53;;
3779;SDS011;1905;52.482;9.802;2022-09-09T03:40:50;3.03;;;1.67;;
3779;SDS011;1905;52.482;9.802;2022-09-09T03:43:22;1.77;;;1.40;;
3779;SDS011;1905;52.482;9.802;2022-09-09T03:45:51;2.43;;;1.30;;
3779;SDS011;1905;52.482;9.802;2022-09-09T03:48:20;1.37;;;1.27;;
3779;SDS011;1905;52.482;9.802;2022-09-09T03:50:49;1.63;;;1.53;;
3779;SDS011;1905;52.482;9.802;2022-09-09T03:53:18;1.60;;;1.43;;
3779;SDS011;1905;52.482;9.802;2022-09-09T03:55:49;1.40;;;1.30;;
3779;SDS011;1905;52.482;9.802;2022-09-09T03:58:22;1.97;;;1.50;;
3779;SDS011;1905;52.482;9.802;2022-09-09T04:00:54;5.60;;;1.40;;
3779;SDS011;1905;52.482;9.802;2022-09-09T04:03:26;2.77;;;1.30;;
3779;SDS011;1905;52.482;9.802;2022-09-09T04:05:55;6.53;;;1.57;;
3779;SDS011;1905;52.482;9.802;2022-09-09T04:08:26;2.50;;;1.57;;
3779;SDS011;1905;52.482;9.802;2022-09-09T04:10:54;1.73;;;1.60;;
3779;SDS011;1905;52.482;9.802;2022-09-09T04:13:26;1.87;;;1.50;;
3779;SDS011;1905;52.482;9.802;2022-09-09T04:15:56;1.80;;;1.63;;
3779;SDS011;1905;52.482;9.802;2022-09-09T04:18:26;2.40;;;1.60;;
3779;SDS011;1905;52.482;9.802;2022-09-09T04:20:55;1.80;;;1.53;;
3779;SDS011;1905;52.482;9.802;2022-09-09T04:23:26;2.73;;;1.87;;
3779;SDS011;1905;52.482;9.802;2022-09-09T04:25:57;2.30;;;1.50;;
3779;SDS011;1905;52.482;9.802;2022-09-09T04:28:27;1.57;;;1.47;;
3779;SDS011;1905;52.482;9.802;2022-09-09T04:31:04;1.70;;;1.60;;
3779;SDS011;1905;52.482;9.802;2022-09-09T04:33:34;1.90;;;1.70;;
3779;SDS011;1905;52.482;9.802;2022-09-09T04:36:06;3.10;;;1.90;;
3779;SDS011;1905;52.482;9.802;2022-09-09T04:38:34;2.30;;;1.60;;
3779;SDS011;1905;52.482;9.802;2022-09-09T04:41:03;1.77;;;1.23;;
3779;SDS011;1905;52.482;9.802;2022-09-09T04:43:33;3.20;;;1.83;;
3779;SDS011;1905;52.482;9.802;2022-09-09T04:46:02;3.00;;;1.63;;
3779;SDS011;1905;52.482;9.802;2022-09-09T04:48:30;1.60;;;1.50;;
3779;SDS011;1905;52.482;9.802;2022-09-09T04:51:01;2.57;;;1.70;;
3779;SDS011;1905;52.482;9.802;2022-09-09T04:53:32;3.23;;;1.50;;
3779;SDS011;1905;52.482;9.802;2022-09-09T04:56:01;1.60;;;1.37;;
3779;SDS011;1905;52.482;9.802;2022-09-09T04:58:32;2.90;;;1.93;;
3779;SDS011;1905;52.482;9.802;2022-09-09T05:01:03;5.77;;;1.73;;
3779;SDS011;1905;52.482;9.802;2022-09-09T05:03:33;2.00;;;1.80;;
3779;SDS011;1905;52.482;9.802;2022-09-09T05:06:05;5.23;;;3.60;;
3779;SDS011;1905;52.482;9.802;2022-09-09T05:08:35;3.23;;;1.73;;
3779;SDS011;1905;52.482;9.802;2022-09-09T05:11:04;2.63;;;1.53;;
3779;SDS011;1905;52.482;9.802;2022-09-09T05:13:39;3.50;;;1.40;;
3779;SDS011;1905;52.482;9.802;2022-09-09T05:16:07;4.27;;;1.90;;
3779;SDS011;1905;52.482;9.802;2022-09-09T05:18:37;1.70;;;1.60;;
3779;SDS011;1905;52.482;9.802;2022-09-09T05:21:07;2.90;;;1.83;;
3779;SDS011;1905;52.482;9.802;2022-09-09T05:23:35;2.13;;;1.90;;
3779;SDS011;1905;52.482;9.802;2022-09-09T05:26:03;2.70;;;1.70;;
3779;SDS011;1905;52.482;9.802;2022-09-09T05:28:33;1.93;;;1.83;;
3779;SDS011;1905;52.482;9.802;2022-09-09T05:31:03;3.40;;;1.67;;
3779;SDS011;1905;52.482;9.802;2022-09-09T05:33:35;6.90;;;2.50;;
3779;SDS011;1905;52.482;9.802;2022-09-09T05:36:04;1.43;;;1.33;;
3779;SDS011;1905;52.482;9.802;2022-09-09T05:38:35;2.20;;;1.73;;
3779;SDS011;1905;52.482;9.802;2022-09-09T05:41:04;1.50;;;1.40;;
3779;SDS011;1905;52.482;9.802;2022-09-09T05:43:31;1.73;;;1.50;;
3779;SDS011;1905;52.482;9.802;2022-09-09T05:46:02;2.90;;;2.57;;
3779;SDS011;1905;52.482;9.802;2022-09-09T05:48:32;2.53;;;2.30;;
3779;SDS011;1905;52.482;9.802;2022-09-09T05:51:02;2.30;;;2.10;;
3779;SDS011;1905;52.482;9.802;2022-09-09T05:53:30;2.40;;;2.20;;
3779;SDS011;1905;52.482;9.802;2022-09-09T05:56:02;2.75;;;1.70;;
3779;SDS011;1905;52.482;9.802;2022-09-09T05:58:33;1.93;;;1.80;;
3779;SDS011;1905;52.482;9.802;2022-09-09T06:01:05;4.70;;;1.73;;
3779;SDS011;1905;52.482;9.802;2022-09-09T06:03:34;2.93;;;1.60;;
3779;SDS011;1905;52.482;9.802;2022-09-09T06:06:03;1.90;;;1.70;;
3779;SDS011;1905;52.482;9.802;2022-09-09T06:08:33;2.70;;;1.77;;
3779;SDS011;1905;52.482;9.802;2022-09-09T06:11:07;1.80;;;1.70;;
3779;SDS011;1905;52.482;9.802;2022-09-09T06:13:37;8.47;;;3.20;;
3779;SDS011;1905;52.482;9.802;2022-09-09T06:16:06;4.10;;;2.65;;
3779;SDS011;1905;52.482;9.802;2022-09-09T06:18:39;3.13;;;2.07;;
3779;SDS011;1905;52.482;9.802;2022-09-09T06:21:08;2.90;;;2.43;;
3779;SDS011;1905;52.482;9.802;2022-09-09T06:23:39;2.80;;;1.60;;
3779;SDS011;1905;52.482;9.802;2022-09-09T06:26:11;8.30;;;2.00;;
3779;SDS011;1905;52.482;9.802;2022-09-09T06:28:40;3.70;;;2.17;;
3779;SDS011;1905;52.482;9.802;2022-09-09T06:31:10;2.00;;;1.90;;
3779;SDS011;1905;52.482;9.802;2022-09-09T06:33:40;3.10;;;2.87;;
3779;SDS011;1905;52.482;9.802;2022-09-09T06:36:11;2.10;;;1.53;;
3779;SDS011;1905;52.482;9.802;2022-09-09T06:38:41;3.37;;;1.73;;
3779;SDS011;1905;52.482;9.802;2022-09-09T06:41:12;4.00;;;2.00;;
3779;SDS011;1905;52.482;9.802;2022-09-09T06:43:43;1.92;;;1.70;;
3779;SDS011;1905;52.482;9.802;2022-09-09T06:46:12;4.60;;;2.17;;
3779;SDS011;1905;52.482;9.802;2022-09-09T06:48:41;2.93;;;2.50;;
3779;SDS011;1905;52.482;9.802;2022-09-09T06:51:14;2.90;;;2.40;;
3779;SDS011;1905;52.482;9.802;2022-09-09T06:53:44;4.90;;;2.00;;
3779;SDS011;1905;52.482;9.802;2022-09-09T06:56:24;2.90;;;1.90;;
3779;SDS011;1905;52.482;9.802;2022-09-09T06:58:57;2.90;;;2.70;;
3779;SDS011;1905;52.482;9.802;2022-09-09T07:01:29;5.73;;;2.50;;
3779;SDS011;1905;52.482;9.802;2022-09-09T07:04:01;2.97;;;2.13;;
3779;SDS011;1905;52.482;9.802;2022-09-09T07:06:35;2.83;;;1.83;;
3779;SDS011;1905;52.482;9.802;2022-09-09T07:09:07;5.07;;;2.27;;
3779;SDS011;1905;52.482;9.802;2022-09-09T07:11:40;3.10;;;2.80;;
3779;SDS011;1905;52.482;9.802;2022-09-09T07:14:10;2.40;;;2.03;;
3779;SDS011;1905;52.482;9.802;2022-09-09T07:16:39;3.07;;;2.07;;
3779;SDS011;1905;52.482;9.802;2022-09-09T07:19:08;3.70;;;2.10;;
3779;SDS011;1905;52.482;9.802;2022-09-09T07:21:36;3.20;;;2.37;;
3779;SDS011;1905;52.482;9.802;2022-09-09T07:24:06;5.33;;;3.23;;
3779;SDS011;1905;52.482;9.802;2022-09-09T07:26:40;3.80;;;2.57;;
3779;SDS011;1905;52.482;9.802;2022-09-09T07:29:07;5.20;;;2.67;;
3779;SDS011;1905;52.482;9.802;2022-09-09T07:31:37;5.70;;;2.57;;
3779;SDS011;1905;52.482;9.802;2022-09-09T07:34:10;3.93;;;2.73;;
3779;SDS011;1905;52.482;9.802;2022-09-09T07:36:39;3.20;;;2.23;;
3779;SDS011;1905;52.482;9.802;2022-09-09T07:39:11;3.40;;;2.00;;
3779;SDS011;1905;52.482;9.802;2022-09-09T07:41:47;2.73;;;1.83;;
3779;SDS011;1905;52.482;9.802;2022-09-09T07:44:19;7.27;;;2.37;;
3779;SDS011;1905;52.482;9.802;2022-09-09T07:46:53;2.20;;;2.00;;
3779;SDS011;1905;52.482;9.802;2022-09-09T07:49:25;3.90;;;2.00;;
3779;SDS011;1905;52.482;9.802;2022-09-09T07:51:59;2.57;;;2.37;;
3779;SDS011;1905;52.482;9.802;2022-09-09T07:54:28;3.60;;;2.10;;
3779;SDS011;1905;52.482;9.802;2022-09-09T07:56:57;5.90;;;2.70;;
3779;SDS011;1905;52.482;9.802;2022-09-09T07:59:27;4.27;;;2.50;;
3779;SDS011;1905;52.482;9.802;2022-09-09T08:01:57;7.70;;;2.30;;
3779;SDS011;1905;52.482;9.802;2022-09-09T08:04:28;8.13;;;2.40;;
3779;SDS011;1905;52.482;9.802;2022-09-09T08:06:56;3.50;;;2.13;;
3779;SDS011;1905;52.482;9.802;2022-09-09T08:09:27;2.43;;;2.23;;
3779;SDS011;1905;52.482;9.802;2022-09-09T08:12:04;4.80;;;2.20;;
3779;SDS011;1905;52.482;9.802;2022-09-09T08:14:34;2.37;;;2.17;;
3779;SDS011;1905;52.482;9.802;2022-09-09T08:17:02;3.37;;;2.40;;
3779;SDS011;1905;52.482;9.802;2022-09-09T08:19:32;3.87;;;2.50;;
3779;SDS011;1905;52.482;9.802;2022-09-09T08:22:04;5.33;;;2.40;;
3779;SDS011;1905;52.482;9.802;2022-09-09T08:24:33;4.50;;;2.03;;
3779;SDS011;1905;52.482;9.802;2022-09-09T08:27:01;9.15;;;2.45;;
3779;SDS011;1905;52.482;9.802;2022-09-09T08:29:30;4.40;;;2.27;;
3779;SDS011;1905;52.482;9.802;2022-09-09T08:31:57;4.23;;;1.73;;
3779;SDS011;1905;52.482;9.802;2022-09-09T08:34:27;2.80;;;2.00;;
3779;SDS011;1905;52.482;9.802;2022-09-09T08:36:58;3.50;;;2.23;;
3779;SDS011;1905;52.482;9.802;2022-09-09T08:39:34;3.73;;;2.20;;
3779;SDS011;1905;52.482;9.802;2022-09-09T08:42:12;4.57;;;2.50;;
3779;SDS011;1905;52.482;9.802;2022-09-09T08:47:57;4.40;;;1.80;;
3779;SDS011;1905;52.482;9.802;2022-09-09T08:50:36;4.67;;;1.80;;
3779;SDS011;1905;52.482;9.802;2022-09-09T08:53:19;2.50;;;2.03;;
3779;SDS011;1905;52.482;9.802;2022-09-09T08:55:52;5.63;;;1.67;;
3779;SDS011;1905;52.482;9.802;2022-09-09T08:58:29;4.37;;;1.73;;
3779;SDS011;1905;52.482;9.802;2022-09-09T09:01:09;6.93;;;2.20;;
3779;SDS011;1905;52.482;9.802;2022-09-09T09:03:51;4.63;;;2.33;;
3779;SDS011;1905;52.482;9.802;2022-09-09T09:06:30;5.70;;;1.60;;
3779;SDS011;1905;52.482;9.802;2022-09-09T09:09:12;3.17;;;2.33;;
3779;SDS011;1905;52.482;9.802;2022-09-09T09:11:49;4.70;;;2.13;;
3779;SDS011;1905;52.482;9.802;2022-09-09T09:14:20;7.10;;;2.40;;
3779;SDS011;1905;52.482;9.802;2022-09-09T09:16:54;4.67;;;2.20;;
3779;SDS011;1905;52.482;9.802;2022-09-09T09:19:27;2.63;;;2.10;;
3779;SDS011;1905;52.482;9.802;2022-09-09T09:21:58;3.10;;;2.00;;
3779;SDS011;1905;52.482;9.802;2022-09-09T09:24:34;3.37;;;1.87;;
3779;SDS011;1905;52.482;9.802;2022-09-09T09:27:13;1.70;;;1.60;;
3779;SDS011;1905;52.482;9.802;2022-09-09T09:29:47;2.67;;;1.40;;
3779;SDS011;1905;52.482;9.802;2022-09-09T09:32:38;4.87;;;1.60;;
3779;SDS011;1905;52.482;9.802;2022-09-09T09:35:09;3.37;;;1.70;;
3779;SDS011;1905;52.482;9.802;2022-09-09T09:37:41;1.83;;;1.40;;
3779;SDS011;1905;52.482;9.802;2022-09-09T09:40:30;2.10;;;1.90;;
3779;SDS011;1905;52.482;9.802;2022-09-09T09:42:58;3.87;;;2.03;;
3779;SDS011;1905;52.482;9.802;2022-09-09T09:45:31;7.03;;;1.90;;
3779;SDS011;1905;52.482;9.802;2022-09-09T09:48:04;4.07;;;1.93;;
3779;SDS011;1905;52.482;9.802;2022-09-09T09:50:45;3.50;;;1.50;;
3779;SDS011;1905;52.482;9.802;2022-09-09T09:53:20;2.73;;;2.07;;
3779;SDS011;1905;52.482;9.802;2022-09-09T09:55:54;6.73;;;1.93;;
3779;SDS011;1905;52.482;9.802;2022-09-09T09:58:25;2.40;;;1.60;;
3779;SDS011;1905;52.482;9.802;2022-09-09T10:00:56;1.93;;;1.73;;
3779;SDS011;1905;52.482;9.802;2022-09-09T10:03:28;2.97;;;1.60;;
3779;SDS011;1905;52.482;9.802;2022-09-09T10:05:59;2.93;;;1.80;;
3779;SDS011;1905;52.482;9.802;2022-09-09T10:08:27;3.73;;;1.53;;
3779;SDS011;1905;52.482;9.802;2022-09-09T10:13:53;2.23;;;2.00;;
3779;SDS011;1905;52.482;9.802;2022-09-09T10:16:39;4.07;;;1.50;;
3779;SDS011;1905;52.482;9.802;2022-09-09T10:19:21;3.73;;;1.70;;
3779;SDS011;1905;52.482;9.802;2022-09-09T10:21:59;3.93;;;1.77;;
3779;SDS011;1905;52.482;9.802;2022-09-09T10:27:42;2.80;;;1.80;;
3779;SDS011;1905;52.482;9.802;2022-09-09T10:30:27;6.10;;;2.07;;
3779;SDS011;1905;52.482;9.802;2022-09-09T10:33:07;4.30;;;1.50;;
3779;SDS011;1905;52.482;9.802;2022-09-09T10:35:40;7.23;;;1.97;;
3779;SDS011;1905;52.482;9.802;2022-09-09T10:38:16;3.20;;;1.77;;
3779;SDS011;1905;52.482;9.802;2022-09-09T10:41:03;3.10;;;1.80;;
3779;SDS011;1905;52.482;9.802;2022-09-09T10:46:48;2.00;;;1.80;;
3779;SDS011;1905;52.482;9.802;2022-09-09T10:49:31;3.20;;;1.67;;
3779;SDS011;1905;52.482;9.802;2022-09-09T10:52:18;5.43;;;1.93;;
3779;SDS011;1905;52.482;9.802;2022-09-09T10:54:56;5.80;;;2.03;;
3779;SDS011;1905;52.482;9.802;2022-09-09T10:57:28;2.40;;;2.20;;
3779;SDS011;1905;52.482;9.802;2022-09-09T11:00:03;4.67;;;1.80;;
3779;SDS011;1905;52.482;9.802;2022-09-09T11:02:33;3.73;;;2.03;;
3779;SDS011;1905;52.482;9.802;2022-09-09T11:05:02;2.47;;;2.00;;
3779;SDS011;1905;52.482;9.802;2022-09-09T11:07:35;4.13;;;2.40;;
3779;SDS011;1905;52.482;9.802;2022-09-09T11:10:15;4.67;;;2.23;;
3779;SDS011;1905;52.482;9.802;2022-09-09T11:12:52;4.50;;;2.17;;
3779;SDS011;1905;52.482;9.802;2022-09-09T11:15:26;2.40;;;2.20;;
3779;SDS011;1905;52.482;9.802;2022-09-09T11:17:59;7.10;;;2.43;;
3779;SDS011;1905;52.482;9.802;2022-09-09T11:20:32;3.83;;;2.17;;
3779;SDS011;1905;52.482;9.802;2022-09-09T11:23:03;2.60;;;1.70;;
3779;SDS011;1905;52.482;9.802;2022-09-09T11:25:37;5.23;;;2.07;;
3779;SDS011;1905;52.482;9.802;2022-09-09T11:28:19;3.72;;;2.25;;
3779;SDS011;1905;52.482;9.802;2022-09-09T11:30:59;4.30;;;2.03;;
3779;SDS011;1905;52.482;9.802;2022-09-09T11:33:50;2.60;;;1.70;;
3779;SDS011;1905;52.482;9.802;2022-09-09T11:36:32;5.33;;;2.40;;
3779;SDS011;1905;52.482;9.802;2022-09-09T11:39:23;2.73;;;1.67;;
3779;SDS011;1905;52.482;9.802;2022-09-09T11:42:07;7.93;;;2.63;;
3779;SDS011;1905;52.482;9.802;2022-09-09T11:44:43;2.90;;;2.37;;
3779;SDS011;1905;52.482;9.802;2022-09-09T11:47:22;3.20;;;1.70;;
3779;SDS011;1905;52.482;9.802;2022-09-09T11:49:55;3.23;;;2.00;;
3779;SDS011;1905;52.482;9.802;2022-09-09T11:52:37;3.00;;;2.10;;
3779;SDS011;1905;52.482;9.802;2022-09-09T11:55:10;4.23;;;1.60;;
3779;SDS011;1905;52.482;9.802;2022-09-09T11:57:39;6.83;;;1.97;;
3779;SDS011;1905;52.482;9.802;2022-09-09T12:02:58;5.43;;;1.93;;
3779;SDS011;1905;52.482;9.802;2022-09-09T12:05:34;1.30;;;1.20;;
3779;SDS011;1905;52.482;9.802;2022-09-09T12:08:04;1.70;;;1.20;;
3779;SDS011;1905;52.482;9.802;2022-09-09T12:10:35;2.37;;;1.30;;
3779;SDS011;1905;52.482;9.802;2022-09-09T12:13:34;3.37;;;1.20;;
3779;SDS011;1905;52.482;9.802;2022-09-09T12:16:29;1.33;;;0.73;;
3779;SDS011;1905;52.482;9.802;2022-09-09T12:19:13;3.10;;;0.93;;
3779;SDS011;1905;52.482;9.802;2022-09-09T12:21:49;2.23;;;1.00;;
3779;SDS011;1905;52.482;9.802;2022-09-09T12:24:24;1.20;;;1.00;;
3779;SDS011;1905;52.482;9.802;2022-09-09T12:27:01;3.40;;;1.30;;
3779;SDS011;1905;52.482;9.802;2022-09-09T12:29:37;4.23;;;1.10;;
3779;SDS011;1905;52.482;9.802;2022-09-09T12:32:15;2.03;;;1.20;;
3779;SDS011;1905;52.482;9.802;2022-09-09T12:34:46;1.87;;;1.03;;
3779;SDS011;1905;52.482;9.802;2022-09-09T12:37:17;2.03;;;1.20;;
3779;SDS011;1905;52.482;9.802;2022-09-09T12:39:56;2.30;;;1.43;;
3779;SDS011;1905;52.482;9.802;2022-09-09T12:42:26;1.23;;;0.97;;
3779;SDS011;1905;52.482;9.802;2022-09-09T12:44:58;2.60;;;1.20;;
3779;SDS011;1905;52.482;9.802;2022-09-09T12:47:48;2.13;;;0.87;;
3779;SDS011;1905;52.482;9.802;2022-09-09T12:50:21;0.90;;;0.90;;
3779;SDS011;1905;52.482;9.802;2022-09-09T12:52:51;2.13;;;1.00;;
3779;SDS011;1905;52.482;9.802;2022-09-09T12:55:23;1.10;;;1.00;;
3779;SDS011;1905;52.482;9.802;2022-09-09T12:57:54;1.45;;;1.10;;
3779;SDS011;1905;52.482;9.802;2022-09-09T13:00:22;2.00;;;1.00;;
3779;SDS011;1905;52.482;9.802;2022-09-09T13:03:00;1.53;;;1.00;;
3779;SDS011;1905;52.482;9.802;2022-09-09T13:05:36;1.50;;;1.10;;
3779;SDS011;1905;52.482;9.802;2022-09-09T13:08:06;3.70;;;1.20;;
3779;SDS011;1905;52.482;9.802;2022-09-09T13:10:37;1.73;;;0.93;;
3779;SDS011;1905;52.482;9.802;2022-09-09T13:13:29;2.10;;;1.13;;
3779;SDS011;1905;52.482;9.802;2022-09-09T13:16:04;4.13;;;1.03;;
3779;SDS011;1905;52.482;9.802;2022-09-09T13:18:36;1.17;;;1.07;;
3779;SDS011;1905;52.482;9.802;2022-09-09T13:21:08;1.10;;;0.90;;
3779;SDS011;1905;52.482;9.802;2022-09-09T13:23:48;5.70;;;0.97;;
3779;SDS011;1905;52.482;9.802;2022-09-09T13:26:22;1.00;;;0.90;;
3779;SDS011;1905;52.482;9.802;2022-09-09T13:28:53;2.60;;;1.03;;
3779;SDS011;1905;52.482;9.802;2022-09-09T13:31:22;1.77;;;0.90;;
3779;SDS011;1905;52.482;9.802;2022-09-09T13:33:54;1.27;;;1.10;;
3779;SDS011;1905;52.482;9.802;2022-09-09T13:36:27;1.45;;;1.20;;
3779;SDS011;1905;52.482;9.802;2022-09-09T13:38:58;1.47;;;0.90;;
3779;SDS011;1905;52.482;9.802;2022-09-09T13:41:28;1.17;;;1.07;;
3779;SDS011;1905;52.482;9.802;2022-09-09T13:44:00;3.20;;;1.30;;
3779;SDS011;1905;52.482;9.802;2022-09-09T13:46:31;3.20;;;1.00;;
3779;SDS011;1905;52.482;9.802;2022-09-09T13:49:00;2.53;;;1.10;;
3779;SDS011;1905;52.482;9.802;2022-09-09T13:51:32;1.20;;;1.00;;
3779;SDS011;1905;52.482;9.802;2022-09-09T13:54:03;2.13;;;1.17;;
3779;SDS011;1905;52.482;9.802;2022-09-09T13:56:32;5.73;;;1.07;;
3779;SDS011;1905;52.482;9.802;2022-09-09T13:59:02;2.13;;;1.00;;
3779;SDS011;1905;52.482;9.802;2022-09-09T14:01:31;1.73;;;1.20;;
3779;SDS011;1905;52.482;9.802;2022-09-09T14:04:01;1.37;;;1.00;;
3779;SDS011;1905;52.482;9.802;2022-09-09T14:06:29;1.00;;;0.90;;
3779;SDS011;1905;52.482;9.802;2022-09-09T14:08:58;1.40;;;1.10;;
3779;SDS011;1905;52.482;9.802;2022-09-09T14:11:26;2.43;;;0.90;;
3779;SDS011;1905;52.482;9.802;2022-09-09T14:13:53;1.30;;;1.07;;
3779;SDS011;1905;52.482;9.802;2022-09-09T14:16:23;4.20;;;1.63;;
3779;SDS011;1905;52.482;9.802;2022-09-09T14:18:52;3.05;;;0.85;;
3779;SDS011;1905;52.482;9.802;2022-09-09T14:21:19;4.57;;;1.30;;
3779;SDS011;1905;52.482;9.802;2022-09-09T14:23:47;2.00;;;0.93;;
3779;SDS011;1905;52.482;9.802;2022-09-09T14:26:15;3.43;;;1.33;;
3779;SDS011;1905;52.482;9.802;2022-09-09T14:28:44;4.18;;;1.20;;
3779;SDS011;1905;52.482;9.802;2022-09-09T14:31:22;1.40;;;0.90;;
3779;SDS011;1905;52.482;9.802;2022-09-09T14:33:51;3.30;;;1.33;;
3779;SDS011;1905;52.482;9.802;2022-09-09T14:36:19;2.40;;;1.20;;
3779;SDS011;1905;52.482;9.802;2022-09-09T14:38:46;1.50;;;1.10;;
3779;SDS011;1905;52.482;9.802;2022-09-09T14:41:15;1.43;;;1.13;;
3779;SDS011;1905;52.482;9.802;2022-09-09T14:43:44;1.47;;;1.10;;
3779;SDS011;1905;52.482;9.802;2022-09-09T14:46:12;2.20;;;1.10;;
3779;SDS011;1905;52.482;9.802;2022-09-09T14:48:43;3.03;;;1.13;;
3779;SDS011;1905;52.482;9.802;2022-09-09T14:51:12;2.40;;;1.20;;
3779;SDS011;1905;52.482;9.802;2022-09-09T14:53:42;2.50;;;1.07;;
3779;SDS011;1905;52.482;9.802;2022-09-09T14:56:11;3.07;;;1.53;;
3779;SDS011;1905;52.482;9.802;2022-09-09T14:58:39;4.30;;;1.20;;
3779;SDS011;1905;52.482;9.802;2022-09-09T15:01:08;1.57;;;1.30;;
3779;SDS011;1905;52.482;9.802;2022-09-09T15:03:37;3.23;;;1.33;;
3779;SDS011;1905;52.482;9.802;2022-09-09T15:06:07;2.23;;;1.00;;
3779;SDS011;1905;52.482;9.802;2022-09-09T15:08:35;2.10;;;1.30;;
3779;SDS011;1905;52.482;9.802;2022-09-09T15:11:08;1.00;;;0.90;;
3779;SDS011;1905;52.482;9.802;2022-09-09T15:13:38;2.90;;;1.40;;
3779;SDS011;1905;52.482;9.802;2022-09-09T15:16:08;1.10;;;1.00;;
3779;SDS011;1905;52.482;9.802;2022-09-09T15:18:36;3.30;;;1.23;;
3779;SDS011;1905;52.482;9.802;2022-09-09T15:21:10;1.17;;;1.10;;
3779;SDS011;1905;52.482;9.802;2022-09-09T15:23:38;1.50;;;0.90;;
3779;SDS011;1905;52.482;9.802;2022-09-09T15:26:06;1.07;;;0.90;;
3779;SDS011;1905;52.482;9.802;2022-09-09T15:28:35;1.67;;;0.97;;
3779;SDS011;1905;52.482;9.802;2022-09-09T15:31:05;3.63;;;1.40;;
3779;SDS011;1905;52.482;9.802;2022-09-09T15:33:34;5.90;;;1.37;;
3779;SDS011;1905;52.482;9.802;2022-09-09T15:36:13;1.33;;;0.97;;
3779;SDS011;1905;52.482;9.802;2022-09-09T15:38:42;2.50;;;1.20;;
3779;SDS011;1905;52.482;9.802;2022-09-09T15:41:10;0.87;;;0.77;;
3779;SDS011;1905;52.482;9.802;2022-09-09T15:43:38;1.42;;;0.90;;
3779;SDS011;1905;52.482;9.802;2022-09-09T15:46:16;3.00;;;1.10;;
3779;SDS011;1905;52.482;9.802;2022-09-09T15:48:53;3.53;;;1.00;;
3779;SDS011;1905;52.482;9.802;2022-09-09T15:51:24;1.70;;;1.00;;
3779;SDS011;1905;52.482;9.802;2022-09-09T15:54:08;1.20;;;1.00;;
3779;SDS011;1905;52.482;9.802;2022-09-09T15:56:36;4.63;;;1.10;;
3779;SDS011;1905;52.482;9.802;2022-09-09T15:59:04;1.73;;;1.23;;
3779;SDS011;1905;52.482;9.802;2022-09-09T16:01:32;5.50;;;1.30;;
3779;SDS011;1905;52.482;9.802;2022-09-09T16:04:00;6.57;;;1.70;;
3779;SDS011;1905;52.482;9.802;2022-09-09T16:06:29;1.73;;;1.40;;
3779;SDS011;1905;52.482;9.802;2022-09-09T16:08:57;3.00;;;1.30;;